createdAt,value
2023-04-15T00:00:58.327Z,81.50
2023-04-15T00:03:25.394Z,80.75
2023-04-15T00:05:52.079Z,80.90
2023-04-15T00:08:18.445Z,81.43
2023-04-15T00:10:46.420Z,81.36
2023-04-15T00:13:12.755Z,80.49
2023-04-15T00:15:39.156Z,81.34
2023-04-15T00:18:05.480Z,81.75
2023-04-15T00:20:32.221Z,81.59
2023-04-15T00:23:00.456Z,80.78
2023-04-15T00:25:26.855Z,80.48
2023-04-15T00:27:53.620Z,81.10
2023-04-15T00:30:20.427Z,80.79
2023-04-15T00:32:46.953Z,80.92
2023-04-15T00:35:13.842Z,81.28
2023-04-15T00:37:40.459Z,80.54
2023-04-15T00:40:10.370Z,80.77
2023-04-15T00:42:36.726Z,81.46
2023-04-15T00:45:03.340Z,83.23
2023-04-15T00:47:31.349Z,82.54
2023-04-15T00:49:58.075Z,82.56
2023-04-15T00:52:24.556Z,82.76
2023-04-15T00:54:52.277Z,82.34
2023-04-15T00:57:19.052Z,82.16
2023-04-15T00:59:45.383Z,82.58
2023-04-15T01:02:12.125Z,83.16
2023-04-15T01:04:38.756Z,83.43
2023-04-15T01:07:05.152Z,83.91
2023-04-15T01:09:33.197Z,85.16
2023-04-15T01:11:59.740Z,84.92
2023-04-15T01:14:26.515Z,84.76
2023-04-15T01:16:53.187Z,84.27
2023-04-15T01:19:19.923Z,83.57
2023-04-15T01:21:46.920Z,83.82
2023-04-15T01:24:16.404Z,84.02
2023-04-15T01:26:44.530Z,83.57
2023-04-15T01:29:11.088Z,84.23
2023-04-15T01:31:37.593Z,83.73
2023-04-15T01:34:04.701Z,84.09
2023-04-15T01:36:31.068Z,84.02
2023-04-15T01:38:58.486Z,84.62
2023-04-15T01:41:28.390Z,84.14
2023-04-15T01:43:55.185Z,84.39
2023-04-15T01:46:21.624Z,84.02
2023-04-15T01:48:47.973Z,84.11
2023-04-15T01:51:14.426Z,84.65
2023-04-15T01:53:41.000Z,84.11
2023-04-15T01:56:08.033Z,84.76
2023-04-15T01:58:34.505Z,84.20
2023-04-15T02:01:02.341Z,84.40
2023-04-15T02:03:29.584Z,84.72
2023-04-15T02:05:56.709Z,85.21
2023-04-15T02:08:23.149Z,85.04
2023-04-15T02:10:49.566Z,84.99
2023-04-15T02:13:17.031Z,85.47
2023-04-15T02:15:50.621Z,86.57
2023-04-15T02:18:17.278Z,86.79
2023-04-15T02:20:44.040Z,87.10
2023-04-15T02:23:11.148Z,87.30
2023-04-15T02:25:38.886Z,88.15
2023-04-15T02:28:06.348Z,88.52
2023-04-15T02:30:33.809Z,89.75
2023-04-15T02:33:01.369Z,89.84
2023-04-15T02:35:27.832Z,90.16
2023-04-15T02:37:54.205Z,90.68
2023-04-15T02:40:20.720Z,91.62
2023-04-15T02:42:47.179Z,92.80
2023-04-15T02:45:13.595Z,94.44
2023-04-15T02:47:41.430Z,94.40
2023-04-15T02:50:12.425Z,94.92
2023-04-15T02:52:42.350Z,94.67
2023-04-15T02:55:09.677Z,94.92
2023-04-15T02:57:40.585Z,94.96
2023-04-15T03:00:09.609Z,94.20
2023-04-15T03:02:37.389Z,93.01
2023-04-15T03:05:04.519Z,93.37
2023-04-15T03:07:31.114Z,92.84
2023-04-15T03:09:57.755Z,93.99
2023-04-15T03:12:24.183Z,92.35
2023-04-15T03:14:50.792Z,92.69
2023-04-15T03:17:18.031Z,92.63
2023-04-15T03:19:44.443Z,93.18
2023-04-15T03:22:10.842Z,93.23
2023-04-15T03:24:37.285Z,94.17
2023-04-15T03:27:03.675Z,93.92
2023-04-15T03:29:30.037Z,93.61
2023-04-15T03:31:56.804Z,94.12
2023-04-15T03:34:23.186Z,94.89
2023-04-15T03:36:49.675Z,96.56
2023-04-15T03:39:16.551Z,96.87
2023-04-15T03:41:42.988Z,97.52
2023-04-15T03:44:09.427Z,96.99
2023-04-15T03:46:36.218Z,98.00
2023-04-15T03:49:02.898Z,99.25
2023-04-15T03:51:29.581Z,100.00
2023-04-15T03:53:55.988Z,100.00
2023-04-15T03:56:22.322Z,100.00
2023-04-15T03:58:48.707Z,100.00
2023-04-15T04:01:15.172Z,100.00
2023-04-15T04:03:41.748Z,100.00
2023-04-15T04:06:08.400Z,100.00
2023-04-15T04:08:34.816Z,100.00
2023-04-15T04:11:01.299Z,100.00
2023-04-15T04:13:27.611Z,100.00
2023-04-15T04:15:54.088Z,100.00
2023-04-15T04:18:20.598Z,100.00
2023-04-15T04:20:47.072Z,100.00
2023-04-15T04:23:13.512Z,100.00
2023-04-15T04:25:39.889Z,100.00
2023-04-15T04:28:06.284Z,100.00
2023-04-15T04:30:32.721Z,100.00
2023-04-15T04:32:59.177Z,100.00
2023-04-15T04:35:25.581Z,100.00
2023-04-15T04:37:52.435Z,100.00
2023-04-15T04:40:18.920Z,100.00
2023-04-15T04:42:45.445Z,100.00
2023-04-15T04:45:11.898Z,100.00
2023-04-15T04:47:38.292Z,100.00
2023-04-15T04:50:05.087Z,100.00
2023-04-15T04:52:31.604Z,100.00
2023-04-15T04:54:57.942Z,100.00
2023-04-15T04:57:24.264Z,100.00
2023-04-15T04:59:50.985Z,100.00
2023-04-15T05:02:17.498Z,100.00
2023-04-15T05:04:43.904Z,100.00
2023-04-15T05:07:10.788Z,100.00
2023-04-15T05:09:37.179Z,100.00
2023-04-15T05:12:07.670Z,100.00
2023-04-15T05:14:33.996Z,100.00
2023-04-15T05:17:00.309Z,100.00
2023-04-15T05:19:26.643Z,100.00
2023-04-15T05:21:52.981Z,100.00
2023-04-15T05:24:19.408Z,100.00
2023-04-15T05:26:46.286Z,100.00
2023-04-15T05:29:12.651Z,100.00
2023-04-15T05:31:39.182Z,100.00
2023-04-15T05:34:05.606Z,100.00
2023-04-15T05:36:32.003Z,100.00
2023-04-15T05:38:58.540Z,100.00
2023-04-15T05:41:24.929Z,100.00
2023-04-15T05:43:51.357Z,99.98
2023-04-15T05:46:17.732Z,98.81
2023-04-15T05:48:44.188Z,99.11
2023-04-15T05:51:11.011Z,98.91
2023-04-15T05:53:37.511Z,98.94
2023-04-15T05:56:04.203Z,98.92
2023-04-15T05:58:30.504Z,99.45
2023-04-15T06:00:57.026Z,99.34
2023-04-15T06:03:23.749Z,100.00
2023-04-15T06:05:50.182Z,100.00
2023-04-15T06:08:17.055Z,100.00
2023-04-15T06:10:43.436Z,100.00
2023-04-15T06:13:09.820Z,100.00
2023-04-15T06:15:36.673Z,100.00
2023-04-15T06:18:03.268Z,100.00
2023-04-15T06:20:29.708Z,100.00
2023-04-15T06:22:56.291Z,100.00
2023-04-15T06:25:22.975Z,100.00
2023-04-15T06:27:49.465Z,98.69
2023-04-15T06:30:15.996Z,97.69
2023-04-15T06:32:42.512Z,97.44
2023-04-15T06:35:09.475Z,95.47
2023-04-15T06:37:36.389Z,94.82
2023-04-15T06:40:04.956Z,94.79
2023-04-15T06:42:31.595Z,93.03
2023-04-15T06:44:57.979Z,92.39
2023-04-15T06:47:24.363Z,92.48
2023-04-15T06:49:50.916Z,92.15
2023-04-15T06:52:17.559Z,91.17
2023-04-15T06:54:43.981Z,88.66
2023-04-15T06:57:10.470Z,86.78
2023-04-15T06:59:36.784Z,84.94
2023-04-15T07:02:03.209Z,82.90
2023-04-15T07:04:29.697Z,81.46
2023-04-15T07:06:56.786Z,79.08
2023-04-15T07:09:24.621Z,79.65
2023-04-15T07:11:51.413Z,78.69
2023-04-15T07:14:18.052Z,81.20
2023-04-15T07:16:44.418Z,82.77
2023-04-15T07:19:10.912Z,84.51
2023-04-15T07:21:38.574Z,84.75
2023-04-15T07:24:06.731Z,84.41
2023-04-15T07:26:33.098Z,84.09
2023-04-15T07:28:59.550Z,82.44
2023-04-15T07:31:26.176Z,82.46
2023-04-15T07:33:53.275Z,77.81
2023-04-15T07:36:19.603Z,76.05
2023-04-15T07:38:45.988Z,75.19
2023-04-15T07:41:12.416Z,72.47
2023-04-15T07:43:38.902Z,70.42
2023-04-15T07:46:05.842Z,69.26
2023-04-15T07:48:32.315Z,67.38
2023-04-15T07:50:59.131Z,66.77
2023-04-15T07:53:26.085Z,67.80
2023-04-15T07:55:52.499Z,65.49
2023-04-15T07:58:18.876Z,63.80
2023-04-15T08:00:45.271Z,64.20
2023-04-15T08:03:11.918Z,64.44
2023-04-15T08:05:38.342Z,65.51
2023-04-15T08:08:04.961Z,66.34
2023-04-15T08:10:31.610Z,64.85
2023-04-15T08:12:58.415Z,62.74
2023-04-15T08:15:24.843Z,63.40
2023-04-15T08:17:51.429Z,61.57
2023-04-15T08:20:19.271Z,62.29
2023-04-15T08:22:47.727Z,62.18
2023-04-15T08:25:14.572Z,61.96
2023-04-15T08:27:41.010Z,59.88
2023-04-15T08:30:08.161Z,58.13
2023-04-15T08:32:34.575Z,57.22
2023-04-15T08:35:01.745Z,60.68
2023-04-15T08:37:28.105Z,59.70
2023-04-15T08:39:54.630Z,58.64
2023-04-15T08:42:27.932Z,58.42
2023-04-15T08:44:55.554Z,59.79
2023-04-15T08:47:27.242Z,62.36
2023-04-15T08:49:55.461Z,62.19
2023-04-15T08:52:22.478Z,61.50
2023-04-15T08:54:48.859Z,61.34
2023-04-15T08:57:15.987Z,60.34
2023-04-15T08:59:43.507Z,60.35
2023-04-15T09:02:09.974Z,58.23
2023-04-15T09:04:36.463Z,59.22
2023-04-15T09:07:02.851Z,58.83
2023-04-15T09:09:29.255Z,57.77
2023-04-15T09:11:55.843Z,56.35
2023-04-15T09:14:22.765Z,55.43
2023-04-15T09:17:00.043Z,57.34
2023-04-15T09:19:27.077Z,58.33
2023-04-15T09:21:58.687Z,56.40
2023-04-15T09:24:34.222Z,56.16
2023-04-15T09:27:01.039Z,56.75
2023-04-15T09:29:27.746Z,57.96
2023-04-15T09:31:54.108Z,57.60
2023-04-15T09:34:21.502Z,56.88
2023-04-15T09:36:50.930Z,58.04
2023-04-15T09:39:18.042Z,58.93
2023-04-15T09:41:44.542Z,59.24
2023-04-15T09:44:26.858Z,61.53
2023-04-15T09:46:53.457Z,61.62
2023-04-15T09:49:20.891Z,62.59
2023-04-15T09:51:58.011Z,59.90
2023-04-15T09:54:36.687Z,62.94
2023-04-15T09:57:10.233Z,62.47
2023-04-15T09:59:36.965Z,60.54
2023-04-15T10:02:06.415Z,61.65
2023-04-15T10:04:36.497Z,61.45
2023-04-15T10:07:05.045Z,60.92
2023-04-15T10:09:33.475Z,59.43
2023-04-15T10:12:01.051Z,58.44
2023-04-15T10:14:32.833Z,57.56
2023-04-15T10:17:04.348Z,56.24
2023-04-15T10:19:33.242Z,57.07
2023-04-15T10:22:00.199Z,56.09
2023-04-15T10:24:27.845Z,55.79
2023-04-15T10:26:55.265Z,53.98
2023-04-15T10:29:21.938Z,56.88
2023-04-15T10:31:48.895Z,55.50
2023-04-15T10:34:16.359Z,54.26
2023-04-15T10:36:42.828Z,55.40
2023-04-15T10:39:34.458Z,57.44
2023-04-15T10:42:16.816Z,60.13
2023-04-15T10:44:45.432Z,59.71
2023-04-15T10:47:18.993Z,60.94
2023-04-15T10:49:51.362Z,60.68
2023-04-15T10:52:22.768Z,62.10
2023-04-15T10:54:49.191Z,63.15
2023-04-15T10:57:22.559Z,63.19
2023-04-15T10:59:58.675Z,63.41
2023-04-15T11:02:46.510Z,61.86
2023-04-15T11:05:14.405Z,58.84
2023-04-15T11:07:46.933Z,59.88
2023-04-15T11:10:13.280Z,58.01
2023-04-15T11:12:41.075Z,61.04
2023-04-15T11:15:32.438Z,61.10
2023-04-15T11:18:20.739Z,61.64
2023-04-15T11:20:53.664Z,60.76
2023-04-15T11:23:27.595Z,59.81
2023-04-15T11:25:55.917Z,60.65
2023-04-15T11:28:25.959Z,57.08
2023-04-15T11:30:52.432Z,54.48
2023-04-15T11:33:18.867Z,58.63
2023-04-15T11:35:45.340Z,58.97
2023-04-15T11:38:13.790Z,61.19
2023-04-15T11:40:41.595Z,59.97
2023-04-15T11:43:16.606Z,56.40
2023-04-15T11:45:53.597Z,59.50
2023-04-15T11:48:22.185Z,58.17
2023-04-15T11:50:57.456Z,57.43
2023-04-15T11:53:24.861Z,55.32
2023-04-15T11:55:53.523Z,56.77
2023-04-15T11:58:24.810Z,57.82
2023-04-15T12:00:53.308Z,59.58
2023-04-15T12:03:31.878Z,57.07
2023-04-15T12:06:21.575Z,59.63
2023-04-15T12:08:52.773Z,60.76
2023-04-15T12:11:21.453Z,59.64
2023-04-15T12:13:50.200Z,60.53
2023-04-15T12:16:18.037Z,55.34
2023-04-15T12:18:50.929Z,54.71
2023-04-15T12:21:19.650Z,59.37
2023-04-15T12:23:53.479Z,58.45
2023-04-15T12:26:28.202Z,60.38
2023-04-15T12:29:06.957Z,60.25
2023-04-15T12:31:37.143Z,60.65
2023-04-15T12:34:07.634Z,59.69
2023-04-15T12:36:37.112Z,61.26
2023-04-15T12:39:05.061Z,63.87
2023-04-15T12:41:32.305Z,64.30
2023-04-15T12:43:59.222Z,64.05
2023-04-15T12:46:27.032Z,62.45
2023-04-15T12:48:53.421Z,61.13
2023-04-15T12:51:23.160Z,61.46
2023-04-15T12:53:49.738Z,63.25
2023-04-15T12:56:17.004Z,63.01
2023-04-15T12:58:43.391Z,63.87
2023-04-15T13:01:10.652Z,64.42
2023-04-15T13:03:37.278Z,66.13
2023-04-15T13:06:04.841Z,64.60
2023-04-15T13:08:31.819Z,64.02
2023-04-15T13:10:58.497Z,64.91
2023-04-15T13:13:24.869Z,66.59
2023-04-15T13:15:51.294Z,67.53
2023-04-15T13:18:17.671Z,68.83
2023-04-15T13:20:43.998Z,68.22
2023-04-15T13:23:10.533Z,67.08
2023-04-15T13:25:36.854Z,68.74
2023-04-15T13:28:03.272Z,68.18
2023-04-15T13:30:29.624Z,69.62
2023-04-15T13:32:56.081Z,70.34
2023-04-15T13:35:22.435Z,70.50
2023-04-15T13:37:48.826Z,70.98
2023-04-15T13:40:15.458Z,71.14
2023-04-15T13:42:42.965Z,72.71
2023-04-15T13:45:09.984Z,71.33
2023-04-15T13:47:36.500Z,70.59
2023-04-15T13:50:02.971Z,70.66
2023-04-15T13:52:29.346Z,71.88
2023-04-15T13:55:07.000Z,71.89
2023-04-15T13:57:42.249Z,71.59
2023-04-15T14:00:09.218Z,70.59
2023-04-15T14:02:35.781Z,71.41
2023-04-15T14:05:02.433Z,71.67
2023-04-15T14:07:31.933Z,72.26
2023-04-15T14:09:58.393Z,70.50
2023-04-15T14:12:24.725Z,72.08
2023-04-15T14:14:51.141Z,71.69
2023-04-15T14:17:17.609Z,71.60
2023-04-15T14:19:43.952Z,73.77
2023-04-15T14:22:10.622Z,73.65
2023-04-15T14:24:37.080Z,74.45
2023-04-15T14:27:03.588Z,76.05
2023-04-15T14:29:29.956Z,75.67
2023-04-15T14:32:04.293Z,77.58
2023-04-15T14:34:38.879Z,77.51
2023-04-15T14:37:05.281Z,77.22
2023-04-15T14:39:31.679Z,76.99
2023-04-15T14:41:58.713Z,77.43
2023-04-15T14:44:25.123Z,77.08
2023-04-15T14:46:51.878Z,76.67
2023-04-15T14:49:18.298Z,76.96
2023-04-15T14:51:44.687Z,76.56
2023-04-15T14:54:11.109Z,76.84
2023-04-15T14:56:37.662Z,75.93
2023-04-15T14:59:04.286Z,75.81
2023-04-15T15:01:30.865Z,76.14
2023-04-15T15:03:57.492Z,78.20
2023-04-15T15:06:25.963Z,77.98
2023-04-15T15:08:52.347Z,76.94
2023-04-15T15:11:18.743Z,77.96
2023-04-15T15:13:45.314Z,77.00
2023-04-15T15:16:14.289Z,78.00
2023-04-15T15:18:41.019Z,77.78
2023-04-15T15:21:07.387Z,78.35
2023-04-15T15:23:33.787Z,79.07
2023-04-15T15:26:00.345Z,80.59
2023-04-15T15:28:27.035Z,80.47
2023-04-15T15:30:53.373Z,80.13
2023-04-15T15:33:20.709Z,80.16
2023-04-15T15:35:47.168Z,79.77
2023-04-15T15:38:13.523Z,80.76
2023-04-15T15:40:39.931Z,80.60
2023-04-15T15:43:06.278Z,80.72
2023-04-15T15:45:32.825Z,81.75
2023-04-15T15:48:01.527Z,82.03
2023-04-15T15:50:27.893Z,81.98
2023-04-15T15:52:55.093Z,83.23
2023-04-15T15:55:21.568Z,82.41
2023-04-15T15:57:47.959Z,83.82
2023-04-15T16:00:14.646Z,82.77
2023-04-15T16:05:12.605Z,83.29
2023-04-15T16:07:38.981Z,81.91
2023-04-15T16:10:05.883Z,83.30
2023-04-15T16:12:33.850Z,83.56
2023-04-15T16:15:01.772Z,84.98
2023-04-15T16:17:28.154Z,85.42
2023-04-15T16:19:59.108Z,85.45
2023-04-15T16:22:27.290Z,85.63
2023-04-15T16:24:53.746Z,86.10
2023-04-15T16:27:20.090Z,86.09
2023-04-15T16:29:46.504Z,85.64
2023-04-15T16:32:13.021Z,86.70
2023-04-15T16:34:40.935Z,87.31
2023-04-15T16:37:07.234Z,86.21
2023-04-15T16:39:33.888Z,85.69
2023-04-15T16:42:00.342Z,85.94
2023-04-15T16:44:26.732Z,86.57
2023-04-15T16:46:53.100Z,87.08
2023-04-15T16:49:19.474Z,86.84
2023-04-15T16:51:45.850Z,86.52
2023-04-15T16:54:12.280Z,86.09
2023-04-15T16:56:38.665Z,86.75
2023-04-15T16:59:05.234Z,87.21
2023-04-15T17:01:31.907Z,87.61
2023-04-15T17:03:58.522Z,86.91
2023-04-15T17:06:24.961Z,87.87
2023-04-15T17:08:51.505Z,87.45
2023-04-15T17:11:17.944Z,87.16
2023-04-15T17:13:44.318Z,87.14
2023-04-15T17:16:10.924Z,86.67
2023-04-15T17:18:38.404Z,87.54
2023-04-15T17:21:05.180Z,86.98
2023-04-15T17:23:31.708Z,87.36
2023-04-15T17:25:58.126Z,87.96
2023-04-15T17:28:24.501Z,88.30
2023-04-15T17:30:50.909Z,88.31
2023-04-15T17:33:56.517Z,87.89
2023-04-15T17:36:04.297Z,87.95
2023-04-15T17:38:30.701Z,88.45
2023-04-15T17:40:57.014Z,88.99
2023-04-15T17:43:23.382Z,88.92
2023-04-15T17:45:50.820Z,88.99
2023-04-15T17:48:17.182Z,89.14
2023-04-15T17:50:43.484Z,88.77
2023-04-15T17:53:09.853Z,89.62
2023-04-15T17:55:36.598Z,89.10
2023-04-15T17:58:03.212Z,89.86
2023-04-15T18:00:29.548Z,90.18
2023-04-15T18:02:56.186Z,90.41
2023-04-15T18:05:22.970Z,89.48
2023-04-15T18:07:51.981Z,90.25
2023-04-15T18:10:18.734Z,90.43
2023-04-15T18:12:45.340Z,90.98
2023-04-15T18:15:11.753Z,89.97
2023-04-15T18:17:38.121Z,89.65
2023-04-15T18:20:06.195Z,89.95
2023-04-15T18:22:32.525Z,89.33
2023-04-15T18:25:03.933Z,89.01
2023-04-15T18:27:34.175Z,90.78
2023-04-15T18:30:00.812Z,89.79
2023-04-15T18:32:31.661Z,89.88
2023-04-15T18:34:58.344Z,90.31
2023-04-15T18:37:25.163Z,90.52
2023-04-15T18:39:51.686Z,89.41
2023-04-15T18:42:18.218Z,89.97
2023-04-15T18:44:44.595Z,89.97
2023-04-15T18:47:11.064Z,90.74
2023-04-15T18:49:37.476Z,90.60
2023-04-15T18:52:04.118Z,92.17
2023-04-15T18:54:30.625Z,91.38
2023-04-15T18:56:57.236Z,92.37
2023-04-15T18:59:29.573Z,92.67
2023-04-15T19:01:58.736Z,91.75
2023-04-15T19:04:25.415Z,93.27
2023-04-15T19:06:51.812Z,93.50
2023-04-15T19:09:18.211Z,93.21
2023-04-15T19:11:44.672Z,92.68
2023-04-15T19:14:11.637Z,93.11
2023-04-15T19:16:38.104Z,93.57
2023-04-15T19:19:06.504Z,94.58
2023-04-15T19:21:33.211Z,94.02
2023-04-15T19:24:00.476Z,94.49
2023-04-15T19:26:26.908Z,95.45
2023-04-15T19:28:53.894Z,94.56
2023-04-15T19:31:20.757Z,95.58
2023-04-15T19:33:47.247Z,95.98
2023-04-15T19:36:13.741Z,95.64
2023-04-15T19:38:40.333Z,95.81
2023-04-15T19:41:06.741Z,95.41
2023-04-15T19:43:33.272Z,96.69
2023-04-15T19:45:59.885Z,97.78
2023-04-15T19:48:26.393Z,97.09
2023-04-15T19:50:52.794Z,96.83
2023-04-15T19:53:19.135Z,97.11
2023-04-15T19:55:46.905Z,96.69
2023-04-15T19:58:13.271Z,97.37
2023-04-15T20:00:39.643Z,97.69
2023-04-15T20:03:06.298Z,97.75
2023-04-15T20:05:32.888Z,98.51
2023-04-15T20:08:03.165Z,98.04
2023-04-15T20:10:31.617Z,98.96
2023-04-15T20:12:58.033Z,98.63
2023-04-15T20:15:24.621Z,98.99
2023-04-15T20:17:51.113Z,98.88
2023-04-15T20:20:17.560Z,98.86
2023-04-15T20:22:43.908Z,100.00
2023-04-15T20:25:10.388Z,99.45
2023-04-15T20:27:36.836Z,100.00
2023-04-15T20:30:04.959Z,100.00
2023-04-15T20:32:35.848Z,100.00
2023-04-15T20:35:03.233Z,100.00
2023-04-15T20:37:30.840Z,100.00
2023-04-15T20:39:57.272Z,100.00
2023-04-15T20:42:23.593Z,100.00
2023-04-15T20:44:49.982Z,100.00
2023-04-15T20:47:16.533Z,100.00
2023-04-15T20:49:43.105Z,100.00
2023-04-15T20:52:09.652Z,100.00
2023-04-15T20:54:36.118Z,100.00
2023-04-15T20:57:02.563Z,100.00
2023-04-15T20:59:29.015Z,100.00
2023-04-15T21:01:57.031Z,100.00
2023-04-15T21:04:24.424Z,100.00
2023-04-15T21:06:52.008Z,100.00
2023-04-15T21:09:18.690Z,100.00
2023-04-15T21:14:18.595Z,100.00
2023-04-15T21:16:45.086Z,100.00
2023-04-15T21:19:11.485Z,100.00
2023-04-15T21:21:37.886Z,100.00
2023-04-15T21:24:04.351Z,100.00
2023-04-15T21:26:30.835Z,100.00
2023-04-15T21:28:57.231Z,100.00
2023-04-15T21:31:23.772Z,100.00
2023-04-15T21:33:50.295Z,100.00
2023-04-15T21:36:16.725Z,100.00
2023-04-15T21:38:43.047Z,100.00
2023-04-15T21:41:10.225Z,100.00
2023-04-15T21:43:37.122Z,100.00
2023-04-15T21:46:22.275Z,100.00
2023-04-15T21:48:50.182Z,100.00
2023-04-15T21:51:16.550Z,100.00
2023-04-15T21:53:43.029Z,100.00
2023-04-15T21:56:09.466Z,100.00
2023-04-15T21:58:36.143Z,100.00
2023-04-15T22:01:03.658Z,100.00
2023-04-15T22:03:33.518Z,100.00
2023-04-15T22:06:04.187Z,100.00
2023-04-15T22:08:38.244Z,100.00
2023-04-15T22:11:20.554Z,100.00
2023-04-15T22:13:47.041Z,100.00
2023-04-15T22:16:13.431Z,100.00
2023-04-15T22:18:39.766Z,100.00
2023-04-15T22:21:06.178Z,100.00
2023-04-15T22:23:32.505Z,100.00
2023-04-15T22:25:59.489Z,100.00
2023-04-15T22:28:25.902Z,100.00
2023-04-15T22:30:54.515Z,100.00
2023-04-15T22:33:20.984Z,100.00
2023-04-15T22:35:47.355Z,100.00
2023-04-15T22:38:13.787Z,100.00
2023-04-15T22:40:40.495Z,100.00
2023-04-15T22:43:06.887Z,100.00
2023-04-15T22:45:33.264Z,100.00
2023-04-15T22:47:59.714Z,100.00
2023-04-15T22:50:26.150Z,100.00
2023-04-15T22:52:52.614Z,100.00
2023-04-15T22:55:19.034Z,100.00
2023-04-15T22:57:45.458Z,100.00
2023-04-15T23:00:12.310Z,100.00
2023-04-15T23:02:38.885Z,100.00
2023-04-15T23:05:13.024Z,100.00
2023-04-15T23:07:40.029Z,100.00
2023-04-15T23:10:07.959Z,100.00
2023-04-15T23:12:34.387Z,100.00
2023-04-15T23:15:00.831Z,100.00
2023-04-15T23:17:27.280Z,100.00
2023-04-15T23:19:53.790Z,100.00
2023-04-15T23:22:20.184Z,100.00
2023-04-15T23:24:46.620Z,100.00
2023-04-15T23:27:12.988Z,100.00
2023-04-15T23:29:39.374Z,100.00
2023-04-15T23:32:06.476Z,100.00
2023-04-15T23:34:32.828Z,100.00
2023-04-15T23:36:59.183Z,100.00
2023-04-15T23:39:25.607Z,100.00
2023-04-15T23:41:51.947Z,100.00
2023-04-15T23:44:18.380Z,100.00
2023-04-15T23:46:44.770Z,100.00
2023-04-15T23:49:11.286Z,100.00
2023-04-15T23:51:37.827Z,100.00
2023-04-15T23:54:04.204Z,100.00
2023-04-15T23:56:31.341Z,100.00
2023-04-15T23:58:57.806Z,100.00
